sensor_id;sensor_type;location;lat;lon;timestamp;P1;durP1;ratioP1;P2;durP2;ratioP2
79728;SDS011;69218;52.132;5.418;2023-10-09T00:02:09;32.47;;;12.02;;
79728;SDS011;69218;52.132;5.418;2023-10-09T00:04:37;31.42;;;12.20;;
79728;SDS011;69218;52.132;5.418;2023-10-09T00:07:08;29.63;;;11.57;;
79728;SDS011;69218;52.132;5.418;2023-10-09T00:09:35;29.30;;;11.50;;
79728;SDS011;69218;52.132;5.418;2023-10-09T00:12:15;26.50;;;10.70;;
79728;SDS011;69218;52.132;5.418;2023-10-09T00:14:42;26.70;;;10.98;;
79728;SDS011;69218;52.132;5.418;2023-10-09T00:17:15;28.08;;;11.90;;
79728;SDS011;69218;52.132;5.418;2023-10-09T00:19:47;29.85;;;12.20;;
79728;SDS011;69218;52.132;5.418;2023-10-09T00:22:25;29.95;;;11.98;;
79728;SDS011;69218;52.132;5.418;2023-10-09T00:24:53;33.78;;;11.85;;
79728;SDS011;69218;52.132;5.418;2023-10-09T00:27:39;25.58;;;11.18;;
79728;SDS011;69218;52.132;5.418;2023-10-09T00:30:13;27.40;;;11.88;;
79728;SDS011;69218;52.132;5.418;2023-10-09T00:32:56;27.58;;;10.80;;
79728;SDS011;69218;52.132;5.418;2023-10-09T00:35:30;29.15;;;11.75;;
79728;SDS011;69218;52.132;5.418;2023-10-09T00:38:05;26.23;;;11.35;;
79728;SDS011;69218;52.132;5.418;2023-10-09T00:40:58;26.75;;;11.60;;
79728;SDS011;69218;52.132;5.418;2023-10-09T00:43:46;29.23;;;11.98;;
79728;SDS011;69218;52.132;5.418;2023-10-09T00:46:20;27.25;;;11.95;;
79728;SDS011;69218;52.132;5.418;2023-10-09T00:48:48;27.73;;;11.20;;
79728;SDS011;69218;52.132;5.418;2023-10-09T00:51:16;26.95;;;11.25;;
79728;SDS011;69218;52.132;5.418;2023-10-09T00:53:48;29.52;;;12.18;;
79728;SDS011;69218;52.132;5.418;2023-10-09T00:56:19;27.52;;;12.40;;
79728;SDS011;69218;52.132;5.418;2023-10-09T00:58:53;27.85;;;11.60;;
79728;SDS011;69218;52.132;5.418;2023-10-09T01:01:33;26.42;;;12.32;;
79728;SDS011;69218;52.132;5.418;2023-10-09T01:04:23;27.67;;;12.13;;
79728;SDS011;69218;52.132;5.418;2023-10-09T01:06:52;28.20;;;11.95;;
79728;SDS011;69218;52.132;5.418;2023-10-09T01:09:34;28.15;;;11.60;;
79728;SDS011;69218;52.132;5.418;2023-10-09T01:12:05;30.08;;;12.32;;
79728;SDS011;69218;52.132;5.418;2023-10-09T01:14:31;30.25;;;12.82;;
79728;SDS011;69218;52.132;5.418;2023-10-09T01:17:07;26.75;;;11.60;;
79728;SDS011;69218;52.132;5.418;2023-10-09T01:19:35;26.38;;;11.40;;
79728;SDS011;69218;52.132;5.418;2023-10-09T01:22:02;30.70;;;12.38;;
79728;SDS011;69218;52.132;5.418;2023-10-09T01:24:39;29.38;;;12.32;;
79728;SDS011;69218;52.132;5.418;2023-10-09T01:27:06;27.63;;;11.73;;
79728;SDS011;69218;52.132;5.418;2023-10-09T01:32:08;24.63;;;11.50;;
79728;SDS011;69218;52.132;5.418;2023-10-09T01:34:42;29.50;;;12.05;;
79728;SDS011;69218;52.132;5.418;2023-10-09T01:37:17;28.30;;;12.07;;
79728;SDS011;69218;52.132;5.418;2023-10-09T01:39:45;27.83;;;12.23;;
79728;SDS011;69218;52.132;5.418;2023-10-09T01:42:14;26.50;;;11.63;;
79728;SDS011;69218;52.132;5.418;2023-10-09T01:44:51;29.05;;;11.88;;
79728;SDS011;69218;52.132;5.418;2023-10-09T01:47:18;26.52;;;12.65;;
79728;SDS011;69218;52.132;5.418;2023-10-09T01:49:45;25.73;;;11.57;;
79728;SDS011;69218;52.132;5.418;2023-10-09T01:52:15;28.85;;;12.57;;
79728;SDS011;69218;52.132;5.418;2023-10-09T01:54:46;26.83;;;11.60;;
79728;SDS011;69218;52.132;5.418;2023-10-09T01:57:16;25.95;;;11.57;;
79728;SDS011;69218;52.132;5.418;2023-10-09T01:59:49;23.95;;;10.98;;
79728;SDS011;69218;52.132;5.418;2023-10-09T02:02:19;25.50;;;11.52;;
79728;SDS011;69218;52.132;5.418;2023-10-09T02:04:58;24.75;;;11.05;;
79728;SDS011;69218;52.132;5.418;2023-10-09T02:07:41;23.88;;;11.43;;
79728;SDS011;69218;52.132;5.418;2023-10-09T02:10:21;24.27;;;11.70;;
79728;SDS011;69218;52.132;5.418;2023-10-09T02:13:01;24.52;;;11.43;;
79728;SDS011;69218;52.132;5.418;2023-10-09T02:15:39;25.45;;;11.45;;
79728;SDS011;69218;52.132;5.418;2023-10-09T02:20:49;22.02;;;11.10;;
79728;SDS011;69218;52.132;5.418;2023-10-09T02:23:31;24.95;;;11.73;;
79728;SDS011;69218;52.132;5.418;2023-10-09T02:26:12;25.17;;;11.73;;
79728;SDS011;69218;52.132;5.418;2023-10-09T02:28:46;26.92;;;11.85;;
79728;SDS011;69218;52.132;5.418;2023-10-09T02:31:39;25.13;;;11.15;;
79728;SDS011;69218;52.132;5.418;2023-10-09T02:34:18;23.45;;;11.05;;
79728;SDS011;69218;52.132;5.418;2023-10-09T02:36:48;27.83;;;11.95;;
79728;SDS011;69218;52.132;5.418;2023-10-09T02:39:16;25.05;;;12.02;;
79728;SDS011;69218;52.132;5.418;2023-10-09T02:41:56;23.63;;;10.95;;
79728;SDS011;69218;52.132;5.418;2023-10-09T02:44:49;21.10;;;10.63;;
79728;SDS011;69218;52.132;5.418;2023-10-09T02:47:20;28.58;;;11.20;;
79728;SDS011;69218;52.132;5.418;2023-10-09T02:49:51;25.55;;;11.82;;
79728;SDS011;69218;52.132;5.418;2023-10-09T02:52:17;23.38;;;11.02;;
79728;SDS011;69218;52.132;5.418;2023-10-09T02:54:52;21.60;;;10.73;;
79728;SDS011;69218;52.132;5.418;2023-10-09T02:57:26;23.08;;;10.95;;
79728;SDS011;69218;52.132;5.418;2023-10-09T03:00:05;22.70;;;10.65;;
79728;SDS011;69218;52.132;5.418;2023-10-09T03:02:35;23.90;;;10.38;;
79728;SDS011;69218;52.132;5.418;2023-10-09T03:05:06;25.33;;;11.25;;
79728;SDS011;69218;52.132;5.418;2023-10-09T03:07:39;20.05;;;10.18;;
79728;SDS011;69218;52.132;5.418;2023-10-09T03:10:08;21.85;;;10.18;;
79728;SDS011;69218;52.132;5.418;2023-10-09T03:12:36;22.65;;;10.15;;
79728;SDS011;69218;52.132;5.418;2023-10-09T03:15:03;20.33;;;10.27;;
79728;SDS011;69218;52.132;5.418;2023-10-09T03:17:34;19.85;;;9.70;;
79728;SDS011;69218;52.132;5.418;2023-10-09T03:20:04;21.95;;;10.35;;
79728;SDS011;69218;52.132;5.418;2023-10-09T03:22:50;20.70;;;9.80;;
79728;SDS011;69218;52.132;5.418;2023-10-09T03:25:17;23.67;;;9.90;;
79728;SDS011;69218;52.132;5.418;2023-10-09T03:27:43;24.35;;;10.32;;
79728;SDS011;69218;52.132;5.418;2023-10-09T03:30:13;22.33;;;9.73;;
79728;SDS011;69218;52.132;5.418;2023-10-09T03:32:53;22.17;;;10.10;;
79728;SDS011;69218;52.132;5.418;2023-10-09T03:35:21;22.63;;;10.55;;
79728;SDS011;69218;52.132;5.418;2023-10-09T03:37:56;21.05;;;10.65;;
79728;SDS011;69218;52.132;5.418;2023-10-09T03:40:26;19.95;;;9.45;;
79728;SDS011;69218;52.132;5.418;2023-10-09T03:42:58;20.20;;;9.48;;
79728;SDS011;69218;52.132;5.418;2023-10-09T03:45:27;21.67;;;10.05;;
79728;SDS011;69218;52.132;5.418;2023-10-09T03:47:56;19.40;;;9.32;;
79728;SDS011;69218;52.132;5.418;2023-10-09T03:50:37;18.80;;;8.82;;
79728;SDS011;69218;52.132;5.418;2023-10-09T03:53:04;20.58;;;9.65;;
79728;SDS011;69218;52.132;5.418;2023-10-09T03:55:35;19.83;;;9.48;;
79728;SDS011;69218;52.132;5.418;2023-10-09T03:58:05;20.17;;;8.93;;
79728;SDS011;69218;52.132;5.418;2023-10-09T04:00:38;16.85;;;8.70;;
79728;SDS011;69218;52.132;5.418;2023-10-09T04:03:12;20.60;;;9.32;;
79728;SDS011;69218;52.132;5.418;2023-10-09T04:05:43;18.23;;;9.10;;
79728;SDS011;69218;52.132;5.418;2023-10-09T04:08:12;15.07;;;8.88;;
79728;SDS011;69218;52.132;5.418;2023-10-09T04:11:08;20.73;;;8.23;;
79728;SDS011;69218;52.132;5.418;2023-10-09T04:13:45;19.15;;;8.63;;
79728;SDS011;69218;52.132;5.418;2023-10-09T04:16:15;18.33;;;8.40;;
79728;SDS011;69218;52.132;5.418;2023-10-09T04:18:54;15.15;;;7.60;;
79728;SDS011;69218;52.132;5.418;2023-10-09T04:21:23;16.63;;;7.88;;
79728;SDS011;69218;52.132;5.418;2023-10-09T04:24:06;16.77;;;8.25;;
79728;SDS011;69218;52.132;5.418;2023-10-09T04:26:40;16.42;;;7.90;;
79728;SDS011;69218;52.132;5.418;2023-10-09T04:29:11;17.42;;;8.00;;
79728;SDS011;69218;52.132;5.418;2023-10-09T04:31:53;19.02;;;8.38;;
79728;SDS011;69218;52.132;5.418;2023-10-09T04:34:22;15.70;;;7.55;;
79728;SDS011;69218;52.132;5.418;2023-10-09T04:36:50;15.70;;;7.47;;
79728;SDS011;69218;52.132;5.418;2023-10-09T04:39:20;16.05;;;7.70;;
79728;SDS011;69218;52.132;5.418;2023-10-09T04:41:55;15.57;;;7.57;;
79728;SDS011;69218;52.132;5.418;2023-10-09T04:44:46;16.10;;;7.88;;
79728;SDS011;69218;52.132;5.418;2023-10-09T04:47:31;16.60;;;7.50;;
79728;SDS011;69218;52.132;5.418;2023-10-09T04:50:05;14.63;;;7.22;;
79728;SDS011;69218;52.132;5.418;2023-10-09T04:52:41;15.95;;;6.95;;
79728;SDS011;69218;52.132;5.418;2023-10-09T04:55:07;12.75;;;6.75;;
79728;SDS011;69218;52.132;5.418;2023-10-09T04:57:44;12.23;;;6.47;;
79728;SDS011;69218;52.132;5.418;2023-10-09T05:00:13;13.98;;;7.40;;
79728;SDS011;69218;52.132;5.418;2023-10-09T05:02:54;14.95;;;6.93;;
79728;SDS011;69218;52.132;5.418;2023-10-09T05:05:26;13.95;;;6.88;;
79728;SDS011;69218;52.132;5.418;2023-10-09T05:08:10;11.88;;;6.43;;
79728;SDS011;69218;52.132;5.418;2023-10-09T05:10:56;15.63;;;6.75;;
79728;SDS011;69218;52.132;5.418;2023-10-09T05:13:25;15.05;;;6.22;;
79728;SDS011;69218;52.132;5.418;2023-10-09T05:16:09;14.90;;;6.82;;
79728;SDS011;69218;52.132;5.418;2023-10-09T05:18:46;16.73;;;6.40;;
79728;SDS011;69218;52.132;5.418;2023-10-09T05:21:30;15.48;;;6.10;;
79728;SDS011;69218;52.132;5.418;2023-10-09T05:23:57;11.95;;;5.45;;
79728;SDS011;69218;52.132;5.418;2023-10-09T05:26:42;14.43;;;6.15;;
79728;SDS011;69218;52.132;5.418;2023-10-09T05:29:23;14.48;;;6.30;;
79728;SDS011;69218;52.132;5.418;2023-10-09T05:32:14;11.40;;;6.40;;
79728;SDS011;69218;52.132;5.418;2023-10-09T05:34:44;12.40;;;5.93;;
79728;SDS011;69218;52.132;5.418;2023-10-09T05:37:26;13.15;;;6.30;;
79728;SDS011;69218;52.132;5.418;2023-10-09T05:42:49;11.75;;;5.13;;
79728;SDS011;69218;52.132;5.418;2023-10-09T05:45:26;11.40;;;5.90;;
79728;SDS011;69218;52.132;5.418;2023-10-09T05:48:17;10.48;;;5.38;;
79728;SDS011;69218;52.132;5.418;2023-10-09T05:50:43;14.35;;;5.65;;
79728;SDS011;69218;52.132;5.418;2023-10-09T05:53:25;15.45;;;6.15;;
79728;SDS011;69218;52.132;5.418;2023-10-09T05:56:10;11.65;;;5.45;;
79728;SDS011;69218;52.132;5.418;2023-10-09T05:58:55;10.88;;;5.40;;
79728;SDS011;69218;52.132;5.418;2023-10-09T06:01:41;10.02;;;4.82;;
79728;SDS011;69218;52.132;5.418;2023-10-09T06:04:17;10.60;;;5.13;;
79728;SDS011;69218;52.132;5.418;2023-10-09T06:06:45;10.55;;;5.13;;
79728;SDS011;69218;52.132;5.418;2023-10-09T06:09:13;11.80;;;4.90;;
79728;SDS011;69218;52.132;5.418;2023-10-09T06:11:41;10.75;;;4.88;;
79728;SDS011;69218;52.132;5.418;2023-10-09T06:14:16;10.07;;;4.55;;
79728;SDS011;69218;52.132;5.418;2023-10-09T06:17:12;9.35;;;4.75;;
79728;SDS011;69218;52.132;5.418;2023-10-09T06:19:50;10.88;;;5.13;;
79728;SDS011;69218;52.132;5.418;2023-10-09T06:22:25;10.50;;;4.82;;
79728;SDS011;69218;52.132;5.418;2023-10-09T06:25:10;12.10;;;5.00;;
79728;SDS011;69218;52.132;5.418;2023-10-09T06:27:38;11.57;;;5.18;;
79728;SDS011;69218;52.132;5.418;2023-10-09T06:30:23;9.65;;;5.30;;
79728;SDS011;69218;52.132;5.418;2023-10-09T06:32:51;8.73;;;4.82;;
79728;SDS011;69218;52.132;5.418;2023-10-09T06:35:25;10.52;;;5.07;;
79728;SDS011;69218;52.132;5.418;2023-10-09T06:38:02;9.82;;;4.88;;
79728;SDS011;69218;52.132;5.418;2023-10-09T06:40:29;11.32;;;4.47;;
79728;SDS011;69218;52.132;5.418;2023-10-09T06:43:15;9.13;;;4.63;;
79728;SDS011;69218;52.132;5.418;2023-10-09T06:45:48;10.82;;;5.30;;
79728;SDS011;69218;52.132;5.418;2023-10-09T06:48:22;10.93;;;4.60;;
79728;SDS011;69218;52.132;5.418;2023-10-09T06:51:10;9.55;;;4.47;;
79728;SDS011;69218;52.132;5.418;2023-10-09T06:53:53;9.07;;;4.40;;
79728;SDS011;69218;52.132;5.418;2023-10-09T06:56:23;10.13;;;4.82;;
79728;SDS011;69218;52.132;5.418;2023-10-09T06:58:56;11.68;;;4.95;;
79728;SDS011;69218;52.132;5.418;2023-10-09T07:01:27;10.00;;;4.93;;
79728;SDS011;69218;52.132;5.418;2023-10-09T07:03:57;8.07;;;4.68;;
79728;SDS011;69218;52.132;5.418;2023-10-09T07:06:37;12.63;;;5.60;;
79728;SDS011;69218;52.132;5.418;2023-10-09T07:09:04;11.77;;;4.82;;
79728;SDS011;69218;52.132;5.418;2023-10-09T07:11:33;11.10;;;5.63;;
79728;SDS011;69218;52.132;5.418;2023-10-09T07:14:24;12.93;;;5.30;;
79728;SDS011;69218;52.132;5.418;2023-10-09T07:17:03;10.23;;;5.15;;
79728;SDS011;69218;52.132;5.418;2023-10-09T07:19:43;12.25;;;5.07;;
79728;SDS011;69218;52.132;5.418;2023-10-09T07:22:10;10.02;;;4.90;;
79728;SDS011;69218;52.132;5.418;2023-10-09T07:30:09;12.00;;;5.15;;
79728;SDS011;69218;52.132;5.418;2023-10-09T07:33:02;13.60;;;5.75;;
79728;SDS011;69218;52.132;5.418;2023-10-09T07:35:36;9.40;;;5.03;;
79728;SDS011;69218;52.132;5.418;2023-10-09T07:38:09;12.48;;;5.07;;
79728;SDS011;69218;52.132;5.418;2023-10-09T07:40:38;10.50;;;5.22;;
79728;SDS011;69218;52.132;5.418;2023-10-09T07:43:23;11.23;;;5.03;;
79728;SDS011;69218;52.132;5.418;2023-10-09T07:45:53;11.60;;;5.75;;
79728;SDS011;69218;52.132;5.418;2023-10-09T07:48:40;12.40;;;5.18;;
79728;SDS011;69218;52.132;5.418;2023-10-09T07:51:18;12.98;;;5.85;;
79728;SDS011;69218;52.132;5.418;2023-10-09T07:53:52;10.90;;;4.80;;
79728;SDS011;69218;52.132;5.418;2023-10-09T07:56:34;12.25;;;4.88;;
79728;SDS011;69218;52.132;5.418;2023-10-09T07:59:12;11.52;;;5.38;;
79728;SDS011;69218;52.132;5.418;2023-10-09T08:01:40;13.93;;;5.20;;
79728;SDS011;69218;52.132;5.418;2023-10-09T08:04:18;11.23;;;5.10;;
79728;SDS011;69218;52.132;5.418;2023-10-09T08:07:07;9.98;;;5.20;;
79728;SDS011;69218;52.132;5.418;2023-10-09T08:10:05;10.25;;;4.35;;
79728;SDS011;69218;52.132;5.418;2023-10-09T08:12:45;12.75;;;5.35;;
79728;SDS011;69218;52.132;5.418;2023-10-09T08:15:16;15.75;;;5.45;;
79728;SDS011;69218;52.132;5.418;2023-10-09T08:17:47;12.10;;;4.93;;
79728;SDS011;69218;52.132;5.418;2023-10-09T08:20:23;11.18;;;5.22;;
79728;SDS011;69218;52.132;5.418;2023-10-09T08:23:02;10.05;;;5.13;;
79728;SDS011;69218;52.132;5.418;2023-10-09T08:25:31;11.25;;;5.03;;
79728;SDS011;69218;52.132;5.418;2023-10-09T08:28:02;11.90;;;4.75;;
79728;SDS011;69218;52.132;5.418;2023-10-09T08:30:48;8.93;;;4.72;;
79728;SDS011;69218;52.132;5.418;2023-10-09T08:33:20;10.25;;;4.53;;
79728;SDS011;69218;52.132;5.418;2023-10-09T08:35:56;11.82;;;5.05;;
79728;SDS011;69218;52.132;5.418;2023-10-09T08:38:32;14.35;;;4.90;;
79728;SDS011;69218;52.132;5.418;2023-10-09T08:41:08;11.43;;;5.10;;
79728;SDS011;69218;52.132;5.418;2023-10-09T08:43:50;10.93;;;5.22;;
79728;SDS011;69218;52.132;5.418;2023-10-09T08:48:46;12.43;;;5.20;;
79728;SDS011;69218;52.132;5.418;2023-10-09T08:51:14;9.65;;;4.95;;
79728;SDS011;69218;52.132;5.418;2023-10-09T08:53:40;9.35;;;4.20;;
79728;SDS011;69218;52.132;5.418;2023-10-09T08:56:09;12.25;;;5.32;;
79728;SDS011;69218;52.132;5.418;2023-10-09T08:58:37;10.77;;;4.25;;
79728;SDS011;69218;52.132;5.418;2023-10-09T09:01:04;15.30;;;5.13;;
79728;SDS011;69218;52.132;5.418;2023-10-09T09:03:40;9.68;;;4.65;;
79728;SDS011;69218;52.132;5.418;2023-10-09T09:06:10;10.63;;;4.82;;
79728;SDS011;69218;52.132;5.418;2023-10-09T09:08:40;10.80;;;4.35;;
79728;SDS011;69218;52.132;5.418;2023-10-09T09:11:14;8.30;;;4.47;;
79728;SDS011;69218;52.132;5.418;2023-10-09T09:16:33;10.07;;;4.35;;
79728;SDS011;69218;52.132;5.418;2023-10-09T09:19:06;7.50;;;4.00;;
79728;SDS011;69218;52.132;5.418;2023-10-09T09:21:37;8.80;;;4.03;;
79728;SDS011;69218;52.132;5.418;2023-10-09T09:24:07;9.63;;;4.50;;
79728;SDS011;69218;52.132;5.418;2023-10-09T09:26:43;8.85;;;3.67;;
79728;SDS011;69218;52.132;5.418;2023-10-09T09:29:13;12.63;;;4.25;;
79728;SDS011;69218;52.132;5.418;2023-10-09T09:31:54;9.70;;;4.20;;
79728;SDS011;69218;52.132;5.418;2023-10-09T09:34:22;8.13;;;3.90;;
79728;SDS011;69218;52.132;5.418;2023-10-09T09:36:56;12.25;;;4.18;;
79728;SDS011;69218;52.132;5.418;2023-10-09T09:39:27;10.35;;;3.70;;
79728;SDS011;69218;52.132;5.418;2023-10-09T09:42:10;10.30;;;3.80;;
79728;SDS011;69218;52.132;5.418;2023-10-09T09:44:41;7.90;;;3.50;;
79728;SDS011;69218;52.132;5.418;2023-10-09T09:47:14;9.90;;;3.72;;
79728;SDS011;69218;52.132;5.418;2023-10-09T09:49:54;9.18;;;4.18;;
79728;SDS011;69218;52.132;5.418;2023-10-09T09:52:31;10.63;;;3.90;;
79728;SDS011;69218;52.132;5.418;2023-10-09T09:55:06;8.05;;;4.85;;
79728;SDS011;69218;52.132;5.418;2023-10-09T09:57:57;9.15;;;3.63;;
79728;SDS011;69218;52.132;5.418;2023-10-09T10:00:31;8.80;;;3.70;;
79728;SDS011;69218;52.132;5.418;2023-10-09T10:03:14;10.60;;;3.53;;
79728;SDS011;69218;52.132;5.418;2023-10-09T10:05:45;8.52;;;3.40;;
79728;SDS011;69218;52.132;5.418;2023-10-09T10:08:21;8.77;;;3.40;;
79728;SDS011;69218;52.132;5.418;2023-10-09T10:10:57;6.53;;;3.28;;
79728;SDS011;69218;52.132;5.418;2023-10-09T10:16:07;9.60;;;3.67;;
79728;SDS011;69218;52.132;5.418;2023-10-09T10:21:19;7.30;;;3.35;;
79728;SDS011;69218;52.132;5.418;2023-10-09T10:23:59;13.13;;;4.00;;
79728;SDS011;69218;52.132;5.418;2023-10-09T10:26:33;8.75;;;3.85;;
79728;SDS011;69218;52.132;5.418;2023-10-09T10:32:01;9.48;;;3.50;;
79728;SDS011;69218;52.132;5.418;2023-10-09T10:37:35;8.38;;;3.55;;
79728;SDS011;69218;52.132;5.418;2023-10-09T10:40:06;8.90;;;3.50;;
79728;SDS011;69218;52.132;5.418;2023-10-09T10:43:02;9.60;;;3.58;;
79728;SDS011;69218;52.132;5.418;2023-10-09T10:46:02;8.90;;;3.42;;
79728;SDS011;69218;52.132;5.418;2023-10-09T10:48:34;8.00;;;3.15;;
79728;SDS011;69218;52.132;5.418;2023-10-09T10:51:05;9.80;;;3.67;;
79728;SDS011;69218;52.132;5.418;2023-10-09T10:53:32;8.00;;;3.17;;
79728;SDS011;69218;52.132;5.418;2023-10-09T10:56:14;9.27;;;3.22;;
79728;SDS011;69218;52.132;5.418;2023-10-09T10:58:41;7.80;;;3.30;;
79728;SDS011;69218;52.132;5.418;2023-10-09T11:01:31;10.70;;;4.10;;
79728;SDS011;69218;52.132;5.418;2023-10-09T11:04:25;8.93;;;3.40;;
79728;SDS011;69218;52.132;5.418;2023-10-09T11:07:01;25.83;;;4.63;;
79728;SDS011;69218;52.132;5.418;2023-10-09T11:09:51;12.48;;;3.60;;
79728;SDS011;69218;52.132;5.418;2023-10-09T11:12:26;8.70;;;3.10;;
79728;SDS011;69218;52.132;5.418;2023-10-09T11:15:05;8.07;;;3.28;;
79728;SDS011;69218;52.132;5.418;2023-10-09T11:17:34;7.53;;;3.60;;
79728;SDS011;69218;52.132;5.418;2023-10-09T11:20:02;8.10;;;3.47;;
79728;SDS011;69218;52.132;5.418;2023-10-09T11:22:50;7.05;;;3.10;;
79728;SDS011;69218;52.132;5.418;2023-10-09T11:25:38;9.82;;;3.55;;
79728;SDS011;69218;52.132;5.418;2023-10-09T11:28:19;7.30;;;3.15;;
79728;SDS011;69218;52.132;5.418;2023-10-09T11:31:11;7.00;;;3.38;;
79728;SDS011;69218;52.132;5.418;2023-10-09T11:33:45;7.63;;;2.72;;
79728;SDS011;69218;52.132;5.418;2023-10-09T11:36:18;7.35;;;3.15;;
79728;SDS011;69218;52.132;5.418;2023-10-09T11:38:57;9.93;;;3.63;;
79728;SDS011;69218;52.132;5.418;2023-10-09T11:41:40;10.38;;;3.25;;
79728;SDS011;69218;52.132;5.418;2023-10-09T11:44:11;6.47;;;3.22;;
79728;SDS011;69218;52.132;5.418;2023-10-09T11:47:02;9.25;;;3.08;;
79728;SDS011;69218;52.132;5.418;2023-10-09T11:49:57;8.50;;;2.85;;
79728;SDS011;69218;52.132;5.418;2023-10-09T11:52:28;8.77;;;3.10;;
79728;SDS011;69218;52.132;5.418;2023-10-09T11:55:03;7.65;;;3.17;;
79728;SDS011;69218;52.132;5.418;2023-10-09T12:00:10;8.73;;;3.50;;
79728;SDS011;69218;52.132;5.418;2023-10-09T12:02:51;7.50;;;3.28;;
79728;SDS011;69218;52.132;5.418;2023-10-09T12:05:19;8.02;;;3.28;;
79728;SDS011;69218;52.132;5.418;2023-10-09T12:07:46;10.07;;;3.20;;
79728;SDS011;69218;52.132;5.418;2023-10-09T12:10:20;6.43;;;3.13;;
79728;SDS011;69218;52.132;5.418;2023-10-09T12:12:52;11.07;;;3.90;;
79728;SDS011;69218;52.132;5.418;2023-10-09T12:15:19;10.43;;;3.95;;
79728;SDS011;69218;52.132;5.418;2023-10-09T12:17:47;7.53;;;2.97;;
79728;SDS011;69218;52.132;5.418;2023-10-09T12:20:14;8.48;;;3.00;;
79728;SDS011;69218;52.132;5.418;2023-10-09T12:22:57;6.80;;;3.42;;
79728;SDS011;69218;52.132;5.418;2023-10-09T12:25:25;8.20;;;2.95;;
79728;SDS011;69218;52.132;5.418;2023-10-09T12:27:52;6.10;;;3.05;;
79728;SDS011;69218;52.132;5.418;2023-10-09T12:30:23;9.23;;;3.75;;
79728;SDS011;69218;52.132;5.418;2023-10-09T12:32:53;7.90;;;3.17;;
79728;SDS011;69218;52.132;5.418;2023-10-09T12:35:21;8.27;;;2.75;;
79728;SDS011;69218;52.132;5.418;2023-10-09T12:37:54;8.77;;;3.03;;
79728;SDS011;69218;52.132;5.418;2023-10-09T12:40:21;7.38;;;2.95;;
79728;SDS011;69218;52.132;5.418;2023-10-09T12:42:55;6.63;;;2.90;;
79728;SDS011;69218;52.132;5.418;2023-10-09T12:45:22;5.82;;;3.00;;
79728;SDS011;69218;52.132;5.418;2023-10-09T12:47:53;8.90;;;3.10;;
79728;SDS011;69218;52.132;5.418;2023-10-09T12:50:25;8.02;;;2.72;;
79728;SDS011;69218;52.132;5.418;2023-10-09T12:52:55;8.88;;;2.88;;
79728;SDS011;69218;52.132;5.418;2023-10-09T12:55:28;7.30;;;2.67;;
79728;SDS011;69218;52.132;5.418;2023-10-09T12:58:01;9.05;;;3.17;;
79728;SDS011;69218;52.132;5.418;2023-10-09T13:00:33;9.95;;;3.30;;
79728;SDS011;69218;52.132;5.418;2023-10-09T13:03:06;6.43;;;2.75;;
79728;SDS011;69218;52.132;5.418;2023-10-09T13:05:48;8.20;;;3.30;;
79728;SDS011;69218;52.132;5.418;2023-10-09T13:08:26;6.40;;;2.95;;
79728;SDS011;69218;52.132;5.418;2023-10-09T13:11:03;6.97;;;3.35;;
79728;SDS011;69218;52.132;5.418;2023-10-09T13:13:38;8.45;;;3.03;;
79728;SDS011;69218;52.132;5.418;2023-10-09T13:16:10;8.07;;;3.35;;
79728;SDS011;69218;52.132;5.418;2023-10-09T13:18:41;5.50;;;2.92;;
79728;SDS011;69218;52.132;5.418;2023-10-09T13:21:25;9.15;;;3.60;;
79728;SDS011;69218;52.132;5.418;2023-10-09T13:23:53;7.85;;;3.20;;
79728;SDS011;69218;52.132;5.418;2023-10-09T13:26:24;7.43;;;2.63;;
79728;SDS011;69218;52.132;5.418;2023-10-09T13:29:00;7.25;;;3.35;;
79728;SDS011;69218;52.132;5.418;2023-10-09T13:31:30;8.55;;;2.90;;
79728;SDS011;69218;52.132;5.418;2023-10-09T13:34:01;7.35;;;3.10;;
79728;SDS011;69218;52.132;5.418;2023-10-09T13:36:33;10.98;;;3.63;;
79728;SDS011;69218;52.132;5.418;2023-10-09T13:41:50;5.65;;;2.90;;
79728;SDS011;69218;52.132;5.418;2023-10-09T13:44:30;8.43;;;3.50;;
79728;SDS011;69218;52.132;5.418;2023-10-09T13:46:59;8.77;;;3.15;;
79728;SDS011;69218;52.132;5.418;2023-10-09T13:49:31;11.23;;;3.50;;
79728;SDS011;69218;52.132;5.418;2023-10-09T13:51:59;7.40;;;3.08;;
79728;SDS011;69218;52.132;5.418;2023-10-09T13:54:30;7.45;;;2.92;;
79728;SDS011;69218;52.132;5.418;2023-10-09T13:57:00;10.48;;;3.22;;
79728;SDS011;69218;52.132;5.418;2023-10-09T13:59:30;7.00;;;3.00;;
79728;SDS011;69218;52.132;5.418;2023-10-09T14:01:57;7.60;;;3.05;;
79728;SDS011;69218;52.132;5.418;2023-10-09T14:04:25;8.43;;;3.08;;
79728;SDS011;69218;52.132;5.418;2023-10-09T14:06:52;11.60;;;3.15;;
79728;SDS011;69218;52.132;5.418;2023-10-09T14:09:24;7.45;;;2.97;;
79728;SDS011;69218;52.132;5.418;2023-10-09T14:11:55;8.20;;;2.85;;
79728;SDS011;69218;52.132;5.418;2023-10-09T14:14:38;6.57;;;3.00;;
79728;SDS011;69218;52.132;5.418;2023-10-09T14:17:17;10.82;;;3.42;;
79728;SDS011;69218;52.132;5.418;2023-10-09T14:19:51;8.35;;;3.13;;
79728;SDS011;69218;52.132;5.418;2023-10-09T14:22:22;7.43;;;2.97;;
79728;SDS011;69218;52.132;5.418;2023-10-09T14:24:51;7.00;;;3.28;;
79728;SDS011;69218;52.132;5.418;2023-10-09T14:27:24;9.93;;;3.17;;
79728;SDS011;69218;52.132;5.418;2023-10-09T14:29:54;9.05;;;2.85;;
79728;SDS011;69218;52.132;5.418;2023-10-09T14:32:23;8.73;;;3.60;;
79728;SDS011;69218;52.132;5.418;2023-10-09T14:35:00;11.20;;;3.33;;
79728;SDS011;69218;52.132;5.418;2023-10-09T14:37:28;7.35;;;3.50;;
79728;SDS011;69218;52.132;5.418;2023-10-09T14:39:57;10.27;;;3.83;;
79728;SDS011;69218;52.132;5.418;2023-10-09T14:42:25;9.65;;;3.33;;
79728;SDS011;69218;52.132;5.418;2023-10-09T14:44:54;10.77;;;3.83;;
79728;SDS011;69218;52.132;5.418;2023-10-09T14:47:23;8.95;;;3.70;;
79728;SDS011;69218;52.132;5.418;2023-10-09T14:49:49;9.27;;;3.90;;
79728;SDS011;69218;52.132;5.418;2023-10-09T14:52:19;9.18;;;3.83;;
79728;SDS011;69218;52.132;5.418;2023-10-09T14:54:46;10.73;;;3.65;;
79728;SDS011;69218;52.132;5.418;2023-10-09T14:57:14;9.32;;;4.07;;
79728;SDS011;69218;52.132;5.418;2023-10-09T14:59:41;12.50;;;4.00;;
79728;SDS011;69218;52.132;5.418;2023-10-09T15:02:11;9.07;;;4.70;;
79728;SDS011;69218;52.132;5.418;2023-10-09T15:04:39;8.35;;;3.85;;
79728;SDS011;69218;52.132;5.418;2023-10-09T15:07:06;10.70;;;3.88;;
79728;SDS011;69218;52.132;5.418;2023-10-09T15:09:33;11.93;;;4.07;;
79728;SDS011;69218;52.132;5.418;2023-10-09T15:12:03;10.25;;;3.67;;
79728;SDS011;69218;52.132;5.418;2023-10-09T15:14:32;9.50;;;4.15;;
79728;SDS011;69218;52.132;5.418;2023-10-09T15:17:00;10.80;;;3.95;;
79728;SDS011;69218;52.132;5.418;2023-10-09T15:19:27;8.82;;;3.92;;
79728;SDS011;69218;52.132;5.418;2023-10-09T15:21:56;11.48;;;3.95;;
79728;SDS011;69218;52.132;5.418;2023-10-09T15:24:26;9.80;;;4.15;;
79728;SDS011;69218;52.132;5.418;2023-10-09T15:26:56;9.25;;;4.13;;
79728;SDS011;69218;52.132;5.418;2023-10-09T15:29:27;9.52;;;4.30;;
79728;SDS011;69218;52.132;5.418;2023-10-09T15:31:55;9.68;;;3.90;;
79728;SDS011;69218;52.132;5.418;2023-10-09T15:34:22;8.98;;;3.83;;
79728;SDS011;69218;52.132;5.418;2023-10-09T15:36:51;8.52;;;3.63;;
79728;SDS011;69218;52.132;5.418;2023-10-09T15:39:20;9.40;;;4.07;;
79728;SDS011;69218;52.132;5.418;2023-10-09T15:41:47;9.45;;;4.20;;
79728;SDS011;69218;52.132;5.418;2023-10-09T15:44:15;8.73;;;3.55;;
79728;SDS011;69218;52.132;5.418;2023-10-09T15:46:43;11.25;;;3.55;;
79728;SDS011;69218;52.132;5.418;2023-10-09T15:49:12;8.98;;;3.72;;
79728;SDS011;69218;52.132;5.418;2023-10-09T15:51:42;13.07;;;3.78;;
79728;SDS011;69218;52.132;5.418;2023-10-09T15:54:10;8.32;;;3.83;;